createdAt,value
2022-10-11T00:00:09.413Z,101033.94
2022-10-11T00:02:36.215Z,101017.16
2022-10-11T00:05:03.609Z,101034.81
2022-10-11T00:07:30.428Z,101023.47
2022-10-11T00:09:57.284Z,101019.13
2022-10-11T00:12:24.123Z,101016.53
2022-10-11T00:14:50.960Z,101033.31
2022-10-11T00:17:17.810Z,101013.03
2022-10-11T00:19:44.646Z,101028.00
2022-10-11T00:22:11.424Z,101016.56
2022-10-11T00:24:38.320Z,101040.44
2022-10-11T00:27:05.172Z,101020.22
2022-10-11T00:29:32.028Z,101029.94
2022-10-11T00:31:58.828Z,101032.66
2022-10-11T00:34:25.813Z,101021.25
2022-10-11T00:36:52.673Z,101023.06
2022-10-11T00:39:19.592Z,101034.59
2022-10-11T00:41:47.923Z,101025.78
2022-10-11T00:44:26.079Z,101018.84
2022-10-11T00:46:57.279Z,101018.84
2022-10-11T00:49:38.346Z,101022.34
2022-10-11T00:52:20.636Z,101030.31
2022-10-11T00:54:49.014Z,101021.53
2022-10-11T00:57:25.150Z,101027.72
2022-10-11T00:59:55.140Z,101022.44
2022-10-11T01:02:23.646Z,101027.78
2022-10-11T01:05:05.672Z,101029.53
2022-10-11T01:07:39.398Z,101025.19
2022-10-11T01:10:06.441Z,101019.87
2022-10-11T01:12:33.939Z,101028.72
2022-10-11T01:15:39.612Z,101008.50
2022-10-11T01:18:40.751Z,101025.25
2022-10-11T01:21:21.896Z,101027.00
2022-10-11T01:24:08.601Z,101003.25
2022-10-11T01:26:53.703Z,101023.50
2022-10-11T01:29:38.732Z,101012.91
2022-10-11T01:32:24.596Z,101013.78
2022-10-11T01:35:00.385Z,101012.91
2022-10-11T01:37:33.141Z,101009.38
2022-10-11T01:40:07.754Z,100988.25
2022-10-11T01:42:38.574Z,101000.56
2022-10-11T01:45:09.452Z,100996.16
2022-10-11T01:47:36.567Z,100995.28
2022-10-11T01:50:03.802Z,100996.16
2022-10-11T01:52:34.173Z,100997.94
2022-10-11T01:55:19.670Z,100979.47
2022-10-11T01:58:07.127Z,100994.44
2022-10-11T02:01:00.201Z,100987.44
2022-10-11T02:03:46.654Z,100997.13
2022-10-11T02:06:28.190Z,100990.97
2022-10-11T02:09:04.460Z,100994.50
2022-10-11T02:11:36.431Z,101007.72
2022-10-11T02:14:13.971Z,100990.13
2022-10-11T02:16:46.424Z,100994.53
2022-10-11T02:19:18.751Z,101006.87
2022-10-11T02:21:50.143Z,100998.94
2022-10-11T02:24:22.262Z,100998.03
2022-10-11T02:26:54.262Z,100999.81
2022-10-11T02:29:24.451Z,101002.44
2022-10-11T02:31:52.268Z,100998.94
2022-10-11T02:34:23.310Z,100998.06
2022-10-11T02:37:06.209Z,101003.34
2022-10-11T02:39:45.819Z,101012.16
2022-10-11T02:42:20.739Z,101016.56
2022-10-11T02:45:00.868Z,100998.09
2022-10-11T02:47:30.355Z,101016.59
2022-10-11T02:49:59.896Z,101017.47
2022-10-11T02:52:26.948Z,101009.53
2022-10-11T02:54:53.836Z,101008.66
2022-10-11T02:57:20.662Z,101012.16
2022-10-11T02:59:47.706Z,101004.25
2022-10-11T03:02:15.042Z,101014.81
2022-10-11T03:04:41.875Z,100989.25
2022-10-11T03:07:08.746Z,101005.12
2022-10-11T03:09:35.784Z,101011.28
2022-10-11T03:12:02.816Z,101002.47
2022-10-11T03:14:29.772Z,101007.78
2022-10-11T03:17:03.959Z,101001.62
2022-10-11T03:19:39.075Z,101009.53
2022-10-11T03:22:07.557Z,101013.03
2022-10-11T03:24:34.411Z,101007.75
2022-10-11T03:27:01.152Z,101020.09
2022-10-11T03:29:27.947Z,101013.03
2022-10-11T03:31:54.910Z,101012.12
2022-10-11T03:34:24.048Z,101014.78
2022-10-11T03:36:50.996Z,101009.50
2022-10-11T03:39:17.947Z,101001.53
2022-10-11T03:41:44.742Z,101011.22
2022-10-11T03:44:11.603Z,101021.75
2022-10-11T03:46:38.476Z,101017.38
2022-10-11T03:49:05.301Z,101032.31
2022-10-11T03:51:32.408Z,101012.91
2022-10-11T03:53:59.190Z,101035.81
2022-10-11T03:56:26.062Z,101033.13
2022-10-11T03:58:52.857Z,101036.66
2022-10-11T04:01:20.214Z,101019.87
2022-10-11T04:03:47.083Z,101034.81
2022-10-11T04:06:14.071Z,101025.16
2022-10-11T04:08:40.910Z,101029.53
2022-10-11T04:11:08.085Z,101028.66
2022-10-11T04:13:34.867Z,101025.97
2022-10-11T04:16:01.984Z,101027.69
2022-10-11T04:18:29.218Z,101023.28
2022-10-11T04:20:56.194Z,101032.09
2022-10-11T04:23:23.020Z,101030.34
2022-10-11T04:25:49.779Z,101027.72
2022-10-11T04:28:16.670Z,101040.03
2022-10-11T04:30:43.561Z,101034.69
2022-10-11T04:33:11.643Z,101015.31
2022-10-11T04:35:38.498Z,101029.38
2022-10-11T04:38:05.799Z,101024.13
2022-10-11T04:40:33.312Z,101030.25
2022-10-11T04:43:00.508Z,101028.47
2022-10-11T04:45:27.360Z,101017.03
2022-10-11T04:47:54.171Z,101035.53
2022-10-11T04:50:20.954Z,101027.56
2022-10-11T04:52:47.935Z,101032.88
2022-10-11T04:55:14.739Z,101030.22
2022-10-11T04:57:41.645Z,101032.00
2022-10-11T05:00:09.169Z,101030.34
2022-10-11T05:02:36.081Z,101029.47
2022-10-11T05:05:04.006Z,101013.59
2022-10-11T05:07:30.804Z,101018.91
2022-10-11T05:09:58.042Z,101022.47
2022-10-11T05:12:25.088Z,101031.28
2022-10-11T05:14:51.979Z,100994.25
2022-10-11T05:17:18.817Z,101023.31
2022-10-11T05:19:45.828Z,101040.97
2022-10-11T05:22:12.619Z,101043.66
2022-10-11T05:24:39.436Z,101037.41
2022-10-11T05:27:06.704Z,101040.91
2022-10-11T05:29:33.916Z,101047.97
2022-10-11T05:32:01.207Z,101047.94
2022-10-11T05:34:28.148Z,101039.97
2022-10-11T05:36:56.583Z,101064.69
2022-10-11T05:39:25.434Z,101045.25
2022-10-11T05:41:52.280Z,101061.91
2022-10-11T05:44:19.112Z,101065.41
2022-10-11T05:46:45.846Z,101055.66
2022-10-11T05:49:12.683Z,101068.88
2022-10-11T05:51:39.497Z,101060.09
2022-10-11T05:54:06.286Z,101069.72
2022-10-11T05:56:33.073Z,101057.34
2022-10-11T05:59:02.360Z,101060.00
2022-10-11T06:01:29.677Z,101058.16
2022-10-11T06:03:56.522Z,101071.31
2022-10-11T06:06:23.804Z,101081.00
2022-10-11T06:08:50.867Z,101073.94
2022-10-11T06:11:20.962Z,101082.72
2022-10-11T06:13:48.714Z,101097.63
2022-10-11T06:16:16.369Z,101093.09
2022-10-11T06:18:43.627Z,101097.44
2022-10-11T06:21:10.540Z,101100.91
2022-10-11T06:23:37.370Z,101095.50
2022-10-11T06:26:10.102Z,101098.97
2022-10-11T06:28:37.892Z,101090.97
2022-10-11T06:31:06.169Z,101102.28
2022-10-11T06:33:33.688Z,101088.03
2022-10-11T06:36:03.318Z,101094.84
2022-10-11T06:38:31.001Z,101092.06
2022-10-11T06:40:58.212Z,101094.56
2022-10-11T06:43:25.422Z,101088.25
2022-10-11T06:45:52.237Z,101100.47
2022-10-11T06:48:19.012Z,101099.69
2022-10-11T06:50:59.712Z,101100.56
2022-10-11T06:53:28.044Z,101110.53
2022-10-11T06:56:01.075Z,101110.53
2022-10-11T06:58:28.545Z,101109.56
2022-10-11T07:00:59.329Z,101106.00
2022-10-11T07:03:26.263Z,101103.38
2022-10-11T07:05:53.390Z,101107.59
2022-10-11T07:08:20.211Z,101110.94
2022-10-11T07:10:50.062Z,101122.00
2022-10-11T07:13:17.428Z,101125.97
2022-10-11T07:15:44.307Z,101123.78
2022-10-11T07:18:11.098Z,101114.75
2022-10-11T07:20:38.206Z,101118.19
2022-10-11T07:23:05.024Z,101103.12
2022-10-11T07:25:31.835Z,101113.59
2022-10-11T07:27:58.686Z,101111.47
2022-10-11T07:30:25.499Z,101106.81
2022-10-11T07:32:52.603Z,101110.44
2022-10-11T07:35:19.894Z,101101.16
2022-10-11T07:37:46.724Z,101117.66
2022-10-11T07:40:13.899Z,101112.97
2022-10-11T07:42:40.714Z,101116.34
2022-10-11T07:45:07.885Z,101119.72
2022-10-11T07:47:35.013Z,101112.75
2022-10-11T07:50:02.273Z,101122.22
2022-10-11T07:52:29.199Z,101125.28
2022-10-11T07:54:55.989Z,101124.34
2022-10-11T07:57:22.825Z,101112.03
2022-10-11T07:59:50.463Z,101114.72
2022-10-11T08:02:17.296Z,101120.78
2022-10-11T08:04:44.276Z,101122.69
2022-10-11T08:07:11.118Z,101130.03
2022-10-11T08:09:38.017Z,101127.88
2022-10-11T08:12:04.931Z,101118.47
2022-10-11T08:14:31.742Z,101119.16
2022-10-11T08:17:00.254Z,101116.78
2022-10-11T08:19:27.207Z,101132.03
2022-10-11T08:21:54.064Z,101118.87
2022-10-11T08:24:21.127Z,101131.00
2022-10-11T08:26:48.287Z,101128.22
2022-10-11T08:29:15.699Z,101117.44
2022-10-11T08:31:44.533Z,101115.37
2022-10-11T08:34:11.795Z,101118.59
2022-10-11T08:36:39.376Z,101112.16
2022-10-11T08:39:08.596Z,101117.72
2022-10-11T08:41:47.838Z,101106.66
2022-10-11T08:47:42.857Z,101114.13
2022-10-11T08:50:19.846Z,101110.28
2022-10-11T08:52:53.127Z,101108.50
2022-10-11T08:55:35.006Z,101121.06
2022-10-11T08:58:02.525Z,101109.38
2022-10-11T09:00:32.922Z,101108.97
2022-10-11T09:03:09.261Z,101100.38
2022-10-11T09:05:51.817Z,101107.28
2022-10-11T09:08:41.895Z,101112.47
2022-10-11T09:11:36.087Z,101107.69
2022-10-11T09:14:19.418Z,101111.16
2022-10-11T09:16:58.419Z,101105.53
2022-10-11T09:19:25.492Z,101115.66
2022-10-11T09:22:16.989Z,101115.59
2022-10-11T09:25:06.862Z,101116.03
2022-10-11T09:28:01.792Z,101121.66
2022-10-11T09:30:27.993Z,101122.06
2022-10-11T09:33:17.657Z,101123.19
2022-10-11T09:35:47.707Z,101130.19
2022-10-11T09:38:41.153Z,101119.66
2022-10-11T09:41:11.941Z,101127.03
2022-10-11T09:43:39.551Z,101121.34
2022-10-11T09:46:23.771Z,101117.16
2022-10-11T09:48:52.251Z,101126.28
2022-10-11T09:51:22.508Z,101117.41
2022-10-11T09:53:55.567Z,101101.06
2022-10-11T09:56:25.245Z,101126.75
2022-10-11T09:59:20.208Z,101124.66
2022-10-11T10:01:47.149Z,101123.75
2022-10-11T10:04:19.951Z,101118.75
2022-10-11T10:06:47.103Z,101123.69
2022-10-11T10:09:26.327Z,101114.66
2022-10-11T10:11:55.425Z,101115.13
2022-10-11T10:14:30.670Z,101113.72
2022-10-11T10:17:07.106Z,101120.69
2022-10-11T10:19:47.052Z,101117.53
2022-10-11T10:22:28.045Z,101110.97
2022-10-11T10:24:56.815Z,101120.97
2022-10-11T10:27:26.625Z,101116.91
2022-10-11T10:30:08.718Z,101108.97
2022-10-11T10:33:02.799Z,101113.56
2022-10-11T10:35:33.682Z,101107.34
2022-10-11T10:38:11.159Z,101105.06
2022-10-11T10:40:43.314Z,101107.97
2022-10-11T10:43:15.738Z,101105.78
2022-10-11T10:46:01.137Z,101098.84
2022-10-11T10:51:57.929Z,101099.62
2022-10-11T10:54:51.183Z,101105.69
2022-10-11T10:57:43.543Z,101099.72
2022-10-11T11:00:15.499Z,101099.91
2022-10-11T11:02:49.942Z,101098.28
2022-10-11T11:05:53.751Z,101088.53
2022-10-11T11:08:50.247Z,101087.22
2022-10-11T11:11:43.214Z,101090.44
2022-10-11T11:14:15.962Z,101088.50
2022-10-11T11:17:23.601Z,101084.87
2022-10-11T11:19:59.205Z,101084.78
2022-10-11T11:23:08.441Z,101083.22
2022-10-11T11:25:57.056Z,101086.44
2022-10-11T11:28:46.902Z,101092.09
2022-10-11T11:31:44.614Z,101079.44
2022-10-11T11:34:28.794Z,101094.31
2022-10-11T11:36:57.654Z,101090.50
2022-10-11T11:39:35.634Z,101083.66
2022-10-11T11:42:26.613Z,101087.28
2022-10-11T11:44:53.774Z,101077.16
2022-10-11T11:47:33.131Z,101075.59
2022-10-11T11:50:05.878Z,101076.34
2022-10-11T11:52:37.512Z,101069.28
2022-10-11T11:55:34.858Z,101068.97
2022-10-11T11:58:20.478Z,101062.59
2022-10-11T12:01:30.276Z,101064.16
2022-10-11T12:04:04.843Z,101053.53
2022-10-11T12:06:47.706Z,101040.72
2022-10-11T12:09:22.883Z,101053.16
2022-10-11T12:11:59.751Z,101053.00
2022-10-11T12:14:39.996Z,101052.00
2022-10-11T12:17:12.099Z,101040.59
2022-10-11T12:19:42.094Z,101034.50
2022-10-11T12:22:27.751Z,101046.59
2022-10-11T12:25:00.308Z,101042.81
2022-10-11T12:27:40.841Z,101036.56
2022-10-11T12:30:43.143Z,101033.78
2022-10-11T12:33:32.945Z,101037.81
2022-10-11T12:36:07.329Z,101031.59
2022-10-11T12:38:40.187Z,101031.69
2022-10-11T12:41:09.963Z,101032.06
2022-10-11T12:44:15.659Z,101035.22
2022-10-11T12:46:57.799Z,101027.53
2022-10-11T12:49:36.261Z,101038.69
2022-10-11T12:52:18.025Z,101030.28
2022-10-11T12:55:03.712Z,101031.53
2022-10-11T12:57:53.934Z,101031.91
2022-10-11T13:00:26.319Z,101022.81
2022-10-11T13:02:53.567Z,101028.06
2022-10-11T13:05:23.441Z,101024.41
2022-10-11T13:07:53.017Z,101027.13
2022-10-11T13:10:26.169Z,101024.53
2022-10-11T13:12:54.167Z,101035.41
2022-10-11T13:15:24.491Z,101019.25
2022-10-11T13:17:58.365Z,101027.81
2022-10-11T13:20:28.337Z,101022.63
2022-10-11T13:22:56.560Z,101022.44
2022-10-11T13:25:26.415Z,101018.34
2022-10-11T13:27:55.883Z,101021.41
2022-10-11T13:30:25.546Z,101023.50
2022-10-11T13:32:53.347Z,101021.91
2022-10-11T13:35:30.922Z,101005.06
2022-10-11T13:37:58.437Z,101001.62
2022-10-11T13:40:26.183Z,101017.94
2022-10-11T13:42:55.064Z,101011.22
2022-10-11T13:45:24.912Z,101023.16
2022-10-11T13:47:53.748Z,101011.25
2022-10-11T13:50:32.079Z,101012.84
2022-10-11T13:53:01.721Z,101021.78
2022-10-11T13:55:56.469Z,101010.25
2022-10-11T13:58:41.332Z,101007.16
2022-10-11T14:01:22.610Z,101016.81
2022-10-11T14:03:59.231Z,101016.59
2022-10-11T14:06:44.663Z,101015.09
2022-10-11T14:09:26.304Z,101006.03
2022-10-11T14:11:54.833Z,101014.06
2022-10-11T14:14:51.215Z,101006.84
2022-10-11T14:17:32.093Z,101015.88
2022-10-11T14:20:11.494Z,101021.81
2022-10-11T14:22:38.780Z,101014.84
2022-10-11T14:25:05.929Z,101017.41
2022-10-11T14:27:32.912Z,101011.75
2022-10-11T14:30:23.962Z,101013.53
2022-10-11T14:32:49.126Z,101020.63
2022-10-11T14:35:25.448Z,101020.59
2022-10-11T14:37:52.994Z,101010.63
2022-10-11T14:40:22.931Z,101025.47
2022-10-11T14:42:50.178Z,101018.19
2022-10-11T14:45:18.131Z,101021.34
2022-10-11T14:47:45.373Z,101013.13
2022-10-11T14:50:39.159Z,101022.38
2022-10-11T14:53:08.114Z,101019.00
2022-10-11T14:55:37.434Z,101012.72
2022-10-11T14:58:08.081Z,101015.53
2022-10-11T15:00:36.320Z,101020.19
2022-10-11T15:03:05.294Z,101015.09
2022-10-11T15:05:34.201Z,101009.28
2022-10-11T15:08:03.310Z,101000.22
2022-10-11T15:10:37.580Z,101004.88
2022-10-11T15:13:06.994Z,101016.00
2022-10-11T15:15:38.063Z,101014.69
2022-10-11T15:18:06.604Z,101006.66
2022-10-11T15:20:46.404Z,101027.13
2022-10-11T15:23:13.849Z,101024.84
2022-10-11T15:25:41.687Z,101013.84
2022-10-11T15:28:19.327Z,101034.13
2022-10-11T15:30:46.679Z,101023.75
2022-10-11T15:33:13.472Z,101032.94
2022-10-11T15:35:40.291Z,101033.91
2022-10-11T15:38:15.921Z,101035.25
2022-10-11T15:40:42.870Z,101033.81
2022-10-11T15:43:09.713Z,101032.81
2022-10-11T15:45:36.836Z,101040.16
2022-10-11T15:48:03.758Z,101041.13
2022-10-11T15:50:41.499Z,101045.78
2022-10-11T15:53:14.291Z,101040.69
2022-10-11T15:55:49.846Z,101049.06
2022-10-11T15:58:21.004Z,101036.69
2022-10-11T16:00:49.556Z,101052.25
2022-10-11T16:03:18.058Z,101046.72
2022-10-11T16:05:45.086Z,101052.00
2022-10-11T16:08:12.439Z,101054.59
2022-10-11T16:10:40.101Z,101057.78
2022-10-11T16:13:07.904Z,101062.19
2022-10-11T16:15:37.833Z,101063.53
2022-10-11T16:18:06.050Z,101057.28
2022-10-11T16:20:36.078Z,101059.34
2022-10-11T16:23:02.895Z,101073.81
2022-10-11T16:25:29.747Z,101066.28
2022-10-11T16:27:56.539Z,101076.41
2022-10-11T16:30:23.450Z,101074.97
2022-10-11T16:32:50.483Z,101080.66
2022-10-11T16:35:17.753Z,101078.19
2022-10-11T16:37:44.823Z,101074.69
2022-10-11T16:40:17.548Z,101082.88
2022-10-11T16:42:46.026Z,101085.78
2022-10-11T16:45:14.488Z,101085.19
2022-10-11T16:47:42.652Z,101088.09
2022-10-11T16:50:11.130Z,101098.91
2022-10-11T16:52:37.977Z,101101.13
2022-10-11T16:55:05.741Z,101083.81
2022-10-11T16:57:32.630Z,101094.81
2022-10-11T16:59:59.661Z,101111.03
2022-10-11T17:02:32.170Z,101110.56
2022-10-11T17:04:59.587Z,101113.34
2022-10-11T17:07:26.948Z,101112.84
2022-10-11T17:09:53.718Z,101103.41
2022-10-11T17:12:23.499Z,101099.09
2022-10-11T17:14:51.321Z,101118.69
2022-10-11T17:17:19.592Z,101114.56
2022-10-11T17:19:47.710Z,101126.34
2022-10-11T17:22:17.735Z,101120.63
2022-10-11T17:24:45.084Z,101125.22
2022-10-11T17:27:12.722Z,101122.63
2022-10-11T17:29:39.880Z,101124.34
2022-10-11T17:32:07.553Z,101118.34
2022-10-11T17:34:35.405Z,101113.12
2022-10-11T17:37:02.749Z,101127.25
2022-10-11T17:39:30.923Z,101126.38
2022-10-11T17:41:58.208Z,101111.56
2022-10-11T17:44:25.058Z,101133.56
2022-10-11T17:46:52.192Z,101131.81
2022-10-11T17:49:19.276Z,101113.44
2022-10-11T17:51:46.399Z,101116.81
2022-10-11T17:54:13.411Z,101135.31
2022-10-11T17:56:42.164Z,101131.03
2022-10-11T17:59:27.819Z,101135.44
2022-10-11T18:01:54.841Z,101129.63
2022-10-11T18:04:23.216Z,101126.25
2022-10-11T18:06:50.848Z,101140.47
2022-10-11T18:09:20.097Z,101140.41
2022-10-11T18:11:48.403Z,101143.41
2022-10-11T18:14:15.767Z,101146.22
2022-10-11T18:16:43.586Z,101146.31
2022-10-11T18:19:13.908Z,101138.69
2022-10-11T18:21:41.994Z,101146.81
2022-10-11T18:24:15.299Z,101150.66
2022-10-11T18:26:43.770Z,101148.03
2022-10-11T18:29:12.520Z,101143.94
2022-10-11T18:31:43.610Z,101160.56
2022-10-11T18:34:13.057Z,101156.09
2022-10-11T18:36:40.500Z,101153.59
2022-10-11T18:39:10.975Z,101146.56
2022-10-11T18:41:39.139Z,101153.50
2022-10-11T18:44:09.116Z,101153.59
2022-10-11T18:46:36.787Z,101144.88
2022-10-11T18:49:04.619Z,101161.53
2022-10-11T18:51:37.731Z,101154.53
2022-10-11T18:54:07.486Z,101155.41
2022-10-11T18:56:37.083Z,101150.91
2022-10-11T18:59:05.017Z,101146.53
2022-10-11T19:01:39.372Z,101147.62
2022-10-11T19:04:09.303Z,101146.75
2022-10-11T19:06:39.829Z,101148.63
2022-10-11T19:09:13.287Z,101138.19
2022-10-11T19:11:42.158Z,101137.28
2022-10-11T19:14:12.493Z,101150.66
2022-10-11T19:16:42.118Z,101145.37
2022-10-11T19:19:11.911Z,101151.66
2022-10-11T19:21:39.921Z,101148.28
2022-10-11T19:24:07.904Z,101159.97
2022-10-11T19:26:37.635Z,101153.03
2022-10-11T19:29:12.015Z,101163.78
2022-10-11T19:31:45.641Z,101159.66
2022-10-11T19:34:13.353Z,101164.34
2022-10-11T19:36:44.393Z,101165.28
2022-10-11T19:39:14.254Z,101166.41
2022-10-11T19:41:42.101Z,101169.09
2022-10-11T19:44:09.932Z,101170.88
2022-10-11T19:46:50.845Z,101169.13
2022-10-11T19:49:23.963Z,101163.03
2022-10-11T19:51:52.081Z,101169.31
2022-10-11T19:54:19.876Z,101157.34
2022-10-11T19:56:46.996Z,101167.91
2022-10-11T19:59:14.693Z,101178.38
2022-10-11T20:01:43.303Z,101159.97
2022-10-11T20:04:27.768Z,101162.63
2022-10-11T20:06:59.840Z,101172.34
2022-10-11T20:09:30.793Z,101180.28
2022-10-11T20:11:58.647Z,101186.31
2022-10-11T20:14:25.726Z,101183.81
2022-10-11T20:16:52.916Z,101177.72
2022-10-11T20:19:20.221Z,101182.09
2022-10-11T20:21:47.823Z,101175.09
2022-10-11T20:24:14.764Z,101177.75
2022-10-11T20:26:41.670Z,101183.09
2022-10-11T20:29:08.647Z,101177.03
2022-10-11T20:31:40.842Z,101177.16
2022-10-11T20:34:08.192Z,101186.16
2022-10-11T20:36:36.573Z,101176.66
2022-10-11T20:39:05.205Z,101182.31
2022-10-11T20:41:39.883Z,101189.47
2022-10-11T20:44:07.741Z,101183.56
2022-10-11T20:46:37.671Z,101192.78
2022-10-11T20:49:07.753Z,101196.37
2022-10-11T20:51:36.539Z,101173.63
2022-10-11T20:54:04.746Z,101198.28
2022-10-11T20:56:32.483Z,101202.78
2022-10-11T20:58:59.841Z,101204.56
2022-10-11T21:01:30.102Z,101202.84
2022-10-11T21:03:58.474Z,101205.50
2022-10-11T21:06:26.303Z,101208.34
2022-10-11T21:08:55.998Z,101195.25
2022-10-11T21:11:27.740Z,101189.91
2022-10-11T21:13:59.106Z,101189.00
2022-10-11T21:16:27.084Z,101195.19
2022-10-11T21:18:57.074Z,101202.16
2022-10-11T21:21:24.797Z,101198.69
2022-10-11T21:24:10.309Z,101190.75
2022-10-11T21:26:37.467Z,101189.09
2022-10-11T21:29:04.665Z,101201.44
2022-10-11T21:31:34.445Z,101196.16
2022-10-11T21:34:02.368Z,101190.97
2022-10-11T21:36:29.114Z,101198.03
2022-10-11T21:38:56.440Z,101204.41
2022-10-11T21:41:30.077Z,101204.50
2022-10-11T21:43:57.818Z,101208.09
2022-10-11T21:46:53.967Z,101189.69
2022-10-11T21:49:17.594Z,101205.66
2022-10-11T21:51:45.249Z,101202.19
2022-10-11T21:54:12.167Z,101217.31
2022-10-11T21:56:38.981Z,101209.44
2022-10-11T21:59:09.406Z,101209.50
2022-10-11T22:01:39.464Z,101190.97
2022-10-11T22:04:09.329Z,101200.69
2022-10-11T22:06:37.360Z,101199.91
2022-10-11T22:09:05.760Z,101205.22
2022-10-11T22:11:32.631Z,101208.75
2022-10-11T22:13:59.646Z,101211.59
2022-10-11T22:16:26.475Z,101210.75
2022-10-11T22:18:54.068Z,101203.69
2022-10-11T22:21:23.494Z,101211.81
2022-10-11T22:23:52.760Z,101219.00
2022-10-11T22:26:25.498Z,101212.75
2022-10-11T22:28:53.513Z,101210.19
2022-10-11T22:31:21.439Z,101194.34
2022-10-11T22:33:49.162Z,101190.75
2022-10-11T22:36:17.265Z,101205.75
2022-10-11T22:38:44.434Z,101204.06
2022-10-11T22:41:11.739Z,101188.19
2022-10-11T22:43:39.056Z,101200.47
2022-10-11T22:46:06.435Z,101197.81
2022-10-11T22:48:33.558Z,101203.13
2022-10-11T22:51:00.792Z,101195.12
2022-10-11T22:53:27.777Z,101196.03
2022-10-11T22:55:54.796Z,101201.31
2022-10-11T22:58:21.625Z,101203.91
2022-10-11T23:00:48.451Z,101200.34
2022-10-11T23:03:16.908Z,101209.16
2022-10-11T23:05:44.026Z,101208.28
2022-10-11T23:08:10.892Z,101190.69
2022-10-11T23:10:40.873Z,101220.75
2022-10-11T23:13:07.701Z,101215.44
2022-10-11T23:15:34.559Z,101211.03
2022-10-11T23:18:01.469Z,101223.50
2022-10-11T23:20:28.309Z,101225.31
2022-10-11T23:22:55.131Z,101225.28
2022-10-11T23:25:22.002Z,101212.97
2022-10-11T23:27:48.779Z,101220.06
2022-10-11T23:30:15.749Z,101228.84
2022-10-11T23:32:42.594Z,101233.25
2022-10-11T23:35:09.442Z,101234.97
2022-10-11T23:37:36.540Z,101216.50
2022-10-11T23:40:04.730Z,101226.13
2022-10-11T23:42:31.645Z,101231.53
2022-10-11T23:44:58.475Z,101198.00
2022-10-11T23:47:25.225Z,101237.81
2022-10-11T23:49:52.868Z,101233.37
2022-10-11T23:52:19.736Z,101239.56
2022-10-11T23:54:46.609Z,101229.00
2022-10-11T23:57:13.561Z,101237.78
2022-10-11T23:59:40.395Z,101238.69
